Time;durP1;ratioP1;P1;durP2;ratioP2;P2;SDS_P1;SDS_P2;PMS_P1;PMS_P2;Temp;Humidity;BMP_temperature;BMP_pressure;BME280_temperature;BME280_humidity;BME280_pressure;Samples;Min_cycle;Max_cycle;Signal;HPM_P1;HPM_P2
2024/01/03 00:00:55;;;;;;;0.20;0.20;;;;;;;;;;4978289;28;20069;-70
2024/01/03 00:03:24;;;;;;;0.20;0.20;;;;;;;;;;4978195;28;20034;-72
2024/01/03 00:05:50;;;;;;;0.10;0.10;;;;;;;;;;4978329;28;20042;-71
2024/01/03 00:08:26;;;;;;;0.10;0.10;;;;;;;;;;4977363;28;20072;-75
2024/01/03 00:10:54;;;;;;;0.10;0.10;;;;;;;;;;4977178;28;20511;-70
2024/01/03 00:13:32;;;;;;;0.45;0.20;;;;;;;;;;4976647;28;20046;-69
2024/01/03 00:16:04;;;;;;;1.00;0.17;;;;;;;;;;4977206;28;20142;-69
2024/01/03 00:18:36;;;;;;;0.10;0.10;;;;;;;;;;4977093;28;20621;-67
2024/01/03 00:21:03;;;;;;;0.20;0.20;;;;;;;;;;4977625;28;20043;-67
2024/01/03 00:23:43;;;;;;;0.13;0.13;;;;;;;;;;4977452;28;20113;-70
2024/01/03 00:26:10;;;;;;;0.38;0.25;;;;;;;;;;4977789;28;20050;-68
2024/01/03 00:28:36;;;;;;;0.10;0.10;;;;;;;;;;4977542;28;20042;-66
2024/01/03 00:31:02;;;;;;;0.65;0.10;;;;;;;;;;4976171;28;20119;-68
2024/01/03 00:33:28;;;;;;;3.13;0.15;;;;;;;;;;4978204;28;20050;-71
2024/01/03 00:35:54;;;;;;;0.20;0.20;;;;;;;;;;4977682;28;20095;-70
2024/01/03 00:38:20;;;;;;;1.50;0.38;;;;;;;;;;4976460;28;20352;-70
2024/01/03 00:40:55;;;;;;;0.20;0.20;;;;;;;;;;4976976;28;20496;-67
2024/01/03 00:43:20;;;;;;;0.17;0.17;;;;;;;;;;4977066;28;20047;-67
2024/01/03 00:45:48;;;;;;;0.20;0.20;;;;;;;;;;4978074;28;20045;-74
2024/01/03 00:48:15;;;;;;;0.25;0.25;;;;;;;;;;4975874;28;20100;-71
2024/01/03 00:50:40;;;;;;;0.17;0.17;;;;;;;;;;4978001;28;20499;-69
2024/01/03 00:53:06;;;;;;;0.20;0.20;;;;;;;;;;4975769;28;20574;-68
2024/01/03 00:55:32;;;;;;;0.20;0.20;;;;;;;;;;4977007;28;20101;-68
2024/01/03 00:57:57;;;;;;;0.10;0.10;;;;;;;;;;4975812;28;20889;-73
2024/01/03 01:00:23;;;;;;;0.20;0.20;;;;;;;;;;4976605;28;20053;-67
2024/01/03 01:02:49;;;;;;;0.30;0.30;;;;;;;;;;4976041;28;20334;-71
2024/01/03 01:05:15;;;;;;;0.32;0.32;;;;;;;;;;4976406;28;20495;-72
2024/01/03 01:07:40;;;;;;;0.20;0.20;;;;;;;;;;4977801;28;20078;-67
2024/01/03 01:10:06;;;;;;;0.43;0.30;;;;;;;;;;4976558;28;20050;-71
2024/01/03 01:12:32;;;;;;;0.35;0.20;;;;;;;;;;4978458;28;20042;-68
2024/01/03 01:14:59;;;;;;;0.43;0.30;;;;;;;;;;4976764;28;20049;-72
2024/01/03 01:17:25;;;;;;;0.10;0.10;;;;;;;;;;4979373;28;20092;-67
2024/01/03 01:19:51;;;;;;;0.20;0.20;;;;;;;;;;4978449;28;21028;-66
2024/01/03 01:22:17;;;;;;;0.20;0.20;;;;;;;;;;4976659;28;20074;-70
2024/01/03 01:24:42;;;;;;;0.10;0.10;;;;;;;;;;4977439;28;20523;-72
2024/01/03 01:27:08;;;;;;;0.22;0.22;;;;;;;;;;4976764;28;20086;-72
2024/01/03 01:29:33;;;;;;;0.30;0.30;;;;;;;;;;4976459;28;20046;-69
2024/01/03 01:31:59;;;;;;;0.25;0.20;;;;;;;;;;4976209;28;20050;-73
2024/01/03 01:34:24;;;;;;;0.60;0.22;;;;;;;;;;4974283;28;21162;-67
2024/01/03 01:36:50;;;;;;;0.20;0.20;;;;;;;;;;4974858;28;20118;-71
2024/01/03 01:39:15;;;;;;;0.20;0.20;;;;;;;;;;4973374;28;20711;-70
2024/01/03 01:41:41;;;;;;;0.20;0.20;;;;;;;;;;4974927;28;20100;-68
2024/01/03 01:44:07;;;;;;;0.20;0.20;;;;;;;;;;4975111;28;20054;-73
2024/01/03 01:46:32;;;;;;;0.20;0.20;;;;;;;;;;4975873;28;20971;-68
2024/01/03 01:48:58;;;;;;;0.25;0.25;;;;;;;;;;4975216;28;20096;-69
2024/01/03 01:51:23;;;;;;;0.43;0.25;;;;;;;;;;4976770;28;20462;-70
2024/01/03 01:53:49;;;;;;;0.20;0.20;;;;;;;;;;4975387;28;20748;-73
2024/01/03 01:56:17;;;;;;;0.30;0.30;;;;;;;;;;4975322;28;20085;-70
2024/01/03 01:58:44;;;;;;;0.10;0.10;;;;;;;;;;4977747;28;20541;-67
2024/01/03 02:01:09;;;;;;;3.30;0.30;;;;;;;;;;4978587;28;20167;-72
2024/01/03 02:03:36;;;;;;;0.32;0.20;;;;;;;;;;4979900;28;20050;-75
2024/01/03 02:06:03;;;;;;;0.20;0.20;;;;;;;;;;4980136;28;20097;-71
2024/01/03 02:08:30;;;;;;;1.40;0.20;;;;;;;;;;4981007;28;20050;-68
2024/01/03 02:10:55;;;;;;;0.30;0.30;;;;;;;;;;4978917;28;20153;-67
2024/01/03 02:13:21;;;;;;;1.00;0.47;;;;;;;;;;4979207;28;20048;-69
2024/01/03 02:15:46;;;;;;;1.25;0.20;;;;;;;;;;4980210;28;20721;-74
2024/01/03 02:18:12;;;;;;;0.38;0.38;;;;;;;;;;4978321;28;20042;-70
2024/01/03 02:20:38;;;;;;;0.40;0.20;;;;;;;;;;4979544;28;20851;-71
2024/01/03 02:23:04;;;;;;;0.80;0.40;;;;;;;;;;4978836;28;20076;-72
2024/01/03 02:25:29;;;;;;;0.22;0.22;;;;;;;;;;4981050;28;20641;-74
2024/01/03 02:27:55;;;;;;;0.25;0.15;;;;;;;;;;4978789;28;20045;-69
2024/01/03 02:30:20;;;;;;;0.20;0.20;;;;;;;;;;4980201;28;20050;-74
2024/01/03 02:32:45;;;;;;;0.10;0.10;;;;;;;;;;4980902;28;20053;-68
2024/01/03 02:35:11;;;;;;;0.55;0.20;;;;;;;;;;4979581;28;20491;-72
2024/01/03 02:37:36;;;;;;;0.28;0.28;;;;;;;;;;4980192;28;20062;-68
2024/01/03 02:40:01;;;;;;;0.20;0.13;;;;;;;;;;4980002;28;20042;-71
2024/01/03 02:42:27;;;;;;;0.43;0.20;;;;;;;;;;4980881;28;20149;-74
2024/01/03 02:44:52;;;;;;;0.20;0.20;;;;;;;;;;4978474;28;20073;-69
2024/01/03 02:47:17;;;;;;;0.20;0.20;;;;;;;;;;4979864;28;20054;-72
2024/01/03 02:49:43;;;;;;;0.20;0.20;;;;;;;;;;4979530;28;20038;-69
2024/01/03 02:52:08;;;;;;;0.75;0.20;;;;;;;;;;4979805;28;20119;-70
2024/01/03 02:54:33;;;;;;;0.20;0.20;;;;;;;;;;4980184;28;20058;-72
2024/01/03 02:56:59;;;;;;;0.20;0.20;;;;;;;;;;4979766;28;20626;-70
2024/01/03 02:59:25;;;;;;;1.77;0.30;;;;;;;;;;4978893;28;20081;-66
2024/01/03 03:01:51;;;;;;;0.93;0.30;;;;;;;;;;4979996;28;20054;-72
2024/01/03 03:04:16;;;;;;;0.30;0.30;;;;;;;;;;4979403;28;20093;-67
2024/01/03 03:06:42;;;;;;;0.32;0.32;;;;;;;;;;4978441;28;20050;-69
2024/01/03 03:09:07;;;;;;;0.10;0.10;;;;;;;;;;4977320;28;20046;-65
2024/01/03 03:11:32;;;;;;;0.30;0.30;;;;;;;;;;4980557;28;20046;-66
2024/01/03 03:13:58;;;;;;;0.22;0.22;;;;;;;;;;4980521;28;20046;-66
2024/01/03 03:16:23;;;;;;;0.28;0.28;;;;;;;;;;4979332;28;20654;-65
2024/01/03 03:18:48;;;;;;;0.20;0.20;;;;;;;;;;4979219;28;20050;-67
2024/01/03 03:21:14;;;;;;;0.30;0.30;;;;;;;;;;4978271;28;20128;-65
2024/01/03 03:23:40;;;;;;;0.40;0.40;;;;;;;;;;4979579;28;20097;-68
2024/01/03 03:26:06;;;;;;;0.10;0.10;;;;;;;;;;4979176;28;20125;-67
2024/01/03 03:28:32;;;;;;;0.20;0.20;;;;;;;;;;4979651;28;20054;-68
2024/01/03 03:30:57;;;;;;;0.10;0.10;;;;;;;;;;4979030;28;20056;-68
2024/01/03 03:33:23;;;;;;;0.35;0.20;;;;;;;;;;4978484;28;20038;-70
2024/01/03 03:35:48;;;;;;;0.20;0.20;;;;;;;;;;4979557;28;20491;-71
2024/01/03 03:38:14;;;;;;;0.10;0.10;;;;;;;;;;4979074;28;20046;-68
2024/01/03 03:40:39;;;;;;;0.32;0.28;;;;;;;;;;4979389;28;20061;-70
2024/01/03 03:43:04;;;;;;;0.10;0.10;;;;;;;;;;4978940;28;20053;-71
2024/01/03 03:45:31;;;;;;;0.20;0.20;;;;;;;;;;4978429;28;20403;-70
2024/01/03 03:47:57;;;;;;;0.30;0.30;;;;;;;;;;4979031;28;20054;-70
2024/01/03 03:50:22;;;;;;;0.20;0.20;;;;;;;;;;4978882;28;20412;-69
2024/01/03 03:52:47;;;;;;;0.20;0.20;;;;;;;;;;4979382;28;20045;-69
2024/01/03 03:55:13;;;;;;;0.40;0.40;;;;;;;;;;4977525;28;20515;-66
2024/01/03 03:57:39;;;;;;;0.40;0.20;;;;;;;;;;4978956;28;20053;-68
2024/01/03 04:00:05;;;;;;;0.20;0.20;;;;;;;;;;4977860;28;20070;-66
2024/01/03 04:02:37;;;;;;;0.20;0.20;;;;;;;;;;4979127;28;20042;-68
2024/01/03 04:05:03;;;;;;;0.20;0.20;;;;;;;;;;4978481;28;20415;-69
2024/01/03 04:07:31;;;;;;;2.47;0.35;;;;;;;;;;4977670;28;20503;-70
2024/01/03 04:09:57;;;;;;;0.30;0.30;;;;;;;;;;4979260;28;20512;-72
2024/01/03 04:12:22;;;;;;;0.20;0.20;;;;;;;;;;4978245;28;20046;-69
2024/01/03 04:14:48;;;;;;;0.30;0.28;;;;;;;;;;4979054;28;20050;-66
2024/01/03 04:17:13;;;;;;;0.10;0.10;;;;;;;;;;4976684;28;20065;-68
2024/01/03 04:19:39;;;;;;;0.65;0.20;;;;;;;;;;4978707;28;20054;-70
2024/01/03 04:22:05;;;;;;;0.77;0.30;;;;;;;;;;4978140;28;20050;-67
2024/01/03 04:24:31;;;;;;;0.20;0.20;;;;;;;;;;4977515;28;20141;-70
2024/01/03 04:26:56;;;;;;;0.20;0.20;;;;;;;;;;4977615;28;20129;-68
2024/01/03 04:29:21;;;;;;;0.10;0.10;;;;;;;;;;4992209;28;20061;-69
2024/01/03 04:31:47;;;;;;;0.20;0.20;;;;;;;;;;4978364;28;20042;-65
2024/01/03 04:34:12;;;;;;;0.20;0.20;;;;;;;;;;4978107;28;20058;-67
2024/01/03 04:36:38;;;;;;;0.45;0.30;;;;;;;;;;4978322;28;20512;-69
2024/01/03 04:39:03;;;;;;;0.30;0.30;;;;;;;;;;4975817;28;20046;-66
2024/01/03 04:41:29;;;;;;;0.15;0.15;;;;;;;;;;4977986;28;20120;-66
2024/01/03 04:43:55;;;;;;;0.22;0.22;;;;;;;;;;4978237;28;20046;-69
2024/01/03 04:46:21;;;;;;;0.20;0.20;;;;;;;;;;4977580;28;20088;-68
2024/01/03 04:48:46;;;;;;;0.20;0.20;;;;;;;;;;4977880;28;20392;-65
2024/01/03 04:51:12;;;;;;;0.10;0.10;;;;;;;;;;4976673;28;20057;-65
2024/01/03 04:53:37;;;;;;;0.30;0.20;;;;;;;;;;4973673;28;20042;-68
2024/01/03 04:56:04;;;;;;;0.25;0.25;;;;;;;;;;4978144;28;20527;-69
2024/01/03 04:58:29;;;;;;;0.30;0.30;;;;;;;;;;4977233;28;20046;-68
2024/01/03 05:00:55;;;;;;;0.38;0.38;;;;;;;;;;4976943;28;20046;-72
2024/01/03 05:03:20;;;;;;;0.30;0.30;;;;;;;;;;4975999;28;20042;-71
2024/01/03 05:05:46;;;;;;;0.20;0.20;;;;;;;;;;4978121;28;20050;-70
2024/01/03 05:08:11;;;;;;;0.20;0.20;;;;;;;;;;4976898;28;20046;-69
2024/01/03 05:10:36;;;;;;;0.30;0.30;;;;;;;;;;4976597;28;20042;-69
2024/01/03 05:13:02;;;;;;;0.20;0.20;;;;;;;;;;4976541;28;20050;-69
2024/01/03 05:15:27;;;;;;;0.20;0.20;;;;;;;;;;4977157;28;20054;-68
2024/01/03 05:17:53;;;;;;;0.20;0.20;;;;;;;;;;4976181;28;20046;-69
2024/01/03 05:20:19;;;;;;;0.30;0.30;;;;;;;;;;4977310;28;20062;-70
2024/01/03 05:22:44;;;;;;;0.10;0.10;;;;;;;;;;4977265;28;20490;-68
2024/01/03 05:25:09;;;;;;;0.20;0.20;;;;;;;;;;4976959;28;20077;-69
2024/01/03 05:27:35;;;;;;;0.20;0.20;;;;;;;;;;4975529;28;20137;-69
2024/01/03 05:30:00;;;;;;;0.35;0.20;;;;;;;;;;4977565;28;20050;-70
2024/01/03 05:32:26;;;;;;;0.52;0.30;;;;;;;;;;4976500;28;20128;-66
2024/01/03 05:34:51;;;;;;;0.20;0.20;;;;;;;;;;4976065;28;20046;-67
2024/01/03 05:37:18;;;;;;;0.10;0.10;;;;;;;;;;4973050;28;20050;-68
2024/01/03 05:39:44;;;;;;;0.10;0.10;;;;;;;;;;4974186;28;20051;-69
2024/01/03 05:42:10;;;;;;;0.25;0.25;;;;;;;;;;4972496;28;20085;-71
2024/01/03 05:44:35;;;;;;;0.20;0.20;;;;;;;;;;4976044;28;20038;-70
2024/01/03 05:47:01;;;;;;;0.22;0.22;;;;;;;;;;4975116;28;20404;-72
2024/01/03 05:49:26;;;;;;;0.10;0.10;;;;;;;;;;4976659;28;20140;-68
2024/01/03 05:51:51;;;;;;;0.20;0.20;;;;;;;;;;4977456;28;20126;-70
2024/01/03 05:54:17;;;;;;;0.22;0.20;;;;;;;;;;4976942;28;20081;-67
2024/01/03 05:56:43;;;;;;;0.10;0.10;;;;;;;;;;4976920;28;20054;-66
2024/01/03 05:59:08;;;;;;;0.20;0.20;;;;;;;;;;4976888;28;20057;-70
2024/01/03 06:01:33;;;;;;;0.25;0.25;;;;;;;;;;4977070;28;20219;-72
2024/01/03 06:03:59;;;;;;;0.10;0.10;;;;;;;;;;4977833;28;20756;-69
2024/01/03 06:06:24;;;;;;;0.20;0.20;;;;;;;;;;4974523;28;20054;-71
2024/01/03 06:08:50;;;;;;;0.15;0.15;;;;;;;;;;4976316;28;20046;-69
2024/01/03 06:11:15;;;;;;;1.35;0.28;;;;;;;;;;4976033;28;20061;-71
2024/01/03 06:13:41;;;;;;;0.10;0.10;;;;;;;;;;4960233;28;20038;-70
2024/01/03 06:16:08;;;;;;;0.20;0.20;;;;;;;;;;4976544;28;20069;-69
2024/01/03 06:18:34;;;;;;;0.57;0.20;;;;;;;;;;4975260;28;20058;-71
2024/01/03 06:20:59;;;;;;;0.20;0.20;;;;;;;;;;4976653;28;20121;-73
2024/01/03 06:23:24;;;;;;;0.20;0.20;;;;;;;;;;4975715;28;20138;-68
2024/01/03 06:25:50;;;;;;;0.82;0.28;;;;;;;;;;4977419;28;20148;-71
2024/01/03 06:28:15;;;;;;;0.10;0.10;;;;;;;;;;4976198;28;20471;-74
2024/01/03 06:30:43;;;;;;;0.20;0.20;;;;;;;;;;4975803;28;20038;-71
2024/01/03 06:33:08;;;;;;;0.35;0.17;;;;;;;;;;4975313;28;20050;-69
2024/01/03 06:35:34;;;;;;;0.20;0.20;;;;;;;;;;4976806;28;20057;-69
2024/01/03 06:37:59;;;;;;;0.13;0.13;;;;;;;;;;4977033;28;20069;-70
2024/01/03 06:40:24;;;;;;;0.10;0.10;;;;;;;;;;4976204;28;20124;-73
2024/01/03 06:42:50;;;;;;;0.20;0.20;;;;;;;;;;4976464;28;20484;-66
2024/01/03 06:45:15;;;;;;;0.20;0.20;;;;;;;;;;4979345;28;20051;-70
2024/01/03 06:47:42;;;;;;;0.15;0.15;;;;;;;;;;4978330;28;20104;-74
2024/01/03 06:50:08;;;;;;;0.55;0.32;;;;;;;;;;4980999;28;20160;-73
2024/01/03 06:52:34;;;;;;;0.20;0.20;;;;;;;;;;4977931;28;20053;-70
2024/01/03 06:54:59;;;;;;;0.20;0.20;;;;;;;;;;4979017;28;20054;-70
2024/01/03 06:57:24;;;;;;;0.20;0.15;;;;;;;;;;4979545;28;20042;-69
2024/01/03 06:59:50;;;;;;;0.10;0.10;;;;;;;;;;4980146;28;20054;-69
2024/01/03 07:02:15;;;;;;;0.10;0.10;;;;;;;;;;4978002;28;20456;-67
2024/01/03 07:04:40;;;;;;;0.20;0.20;;;;;;;;;;4979548;28;20958;-70
2024/01/03 07:07:06;;;;;;;0.20;0.20;;;;;;;;;;4979595;28;20053;-67
2024/01/03 07:09:32;;;;;;;0.20;0.20;;;;;;;;;;4978273;28;20046;-68
2024/01/03 07:11:57;;;;;;;0.17;0.17;;;;;;;;;;4979687;28;20120;-71
2024/01/03 07:14:22;;;;;;;0.20;0.20;;;;;;;;;;4978063;28;20049;-67
2024/01/03 07:16:48;;;;;;;0.20;0.20;;;;;;;;;;4976885;28;20042;-67
2024/01/03 07:19:13;;;;;;;0.20;0.20;;;;;;;;;;4979335;28;20117;-71
2024/01/03 07:21:38;;;;;;;0.17;0.17;;;;;;;;;;4979585;28;20654;-71
2024/01/03 07:24:04;;;;;;;0.20;0.20;;;;;;;;;;4977091;28;20112;-72
2024/01/03 07:26:30;;;;;;;0.10;0.10;;;;;;;;;;4979316;28;20049;-67
2024/01/03 07:28:55;;;;;;;2.30;0.30;;;;;;;;;;4979164;28;20560;-68
2024/01/03 07:31:20;;;;;;;0.20;0.20;;;;;;;;;;4979447;28;20046;-68
2024/01/03 07:33:46;;;;;;;0.20;0.20;;;;;;;;;;4979660;28;20050;-66
2024/01/03 07:36:11;;;;;;;0.40;0.30;;;;;;;;;;4979652;28;20042;-66
2024/01/03 07:38:37;;;;;;;0.20;0.20;;;;;;;;;;4978488;28;20126;-67
2024/01/03 07:41:02;;;;;;;0.20;0.20;;;;;;;;;;4979080;28;20096;-69
2024/01/03 07:43:28;;;;;;;0.10;0.10;;;;;;;;;;4979256;28;20050;-69
2024/01/03 07:45:53;;;;;;;0.20;0.20;;;;;;;;;;4978929;28;20046;-71
2024/01/03 07:48:18;;;;;;;0.45;0.20;;;;;;;;;;4978919;28;20061;-69
2024/01/03 07:50:44;;;;;;;0.35;0.32;;;;;;;;;;4979284;28;20056;-69
2024/01/03 07:53:09;;;;;;;1.67;0.60;;;;;;;;;;4978627;28;20587;-67
2024/01/03 07:55:35;;;;;;;0.45;0.45;;;;;;;;;;4978087;28;20657;-66
2024/01/03 07:58:01;;;;;;;1.48;0.63;;;;;;;;;;4976394;28;20657;-70
2024/01/03 08:00:30;;;;;;;2.05;0.70;;;;;;;;;;4971995;28;20076;-67
2024/01/03 08:02:56;;;;;;;1.90;0.57;;;;;;;;;;4976039;28;20133;-71
2024/01/03 08:05:22;;;;;;;1.00;0.60;;;;;;;;;;4977002;28;20279;-71
2024/01/03 08:07:47;;;;;;;1.38;0.50;;;;;;;;;;4974892;28;20053;-69
2024/01/03 08:10:13;;;;;;;1.50;0.90;;;;;;;;;;4978489;28;20061;-68
2024/01/03 08:12:40;;;;;;;0.52;0.40;;;;;;;;;;4977948;28;20415;-70
2024/01/03 08:15:05;;;;;;;0.30;0.30;;;;;;;;;;4977219;28;20816;-73
2024/01/03 08:17:31;;;;;;;1.83;0.57;;;;;;;;;;4975185;28;20046;-69
2024/01/03 08:19:56;;;;;;;4.05;0.95;;;;;;;;;;4975854;28;20050;-67
2024/01/03 08:22:22;;;;;;;1.80;0.70;;;;;;;;;;4976980;28;20066;-70
2024/01/03 08:24:47;;;;;;;0.55;0.50;;;;;;;;;;4977652;28;20047;-69
2024/01/03 08:27:13;;;;;;;0.30;0.30;;;;;;;;;;4977602;28;20050;-68
2024/01/03 08:29:39;;;;;;;0.77;0.35;;;;;;;;;;4976813;28;20050;-69
2024/01/03 08:32:05;;;;;;;0.38;0.22;;;;;;;;;;4977998;28;20058;-68
2024/01/03 08:34:31;;;;;;;0.20;0.20;;;;;;;;;;4977498;28;20166;-68
2024/01/03 08:36:58;;;;;;;1.80;0.73;;;;;;;;;;4977156;28;20050;-71
2024/01/03 08:39:24;;;;;;;0.98;0.70;;;;;;;;;;4977721;28;20129;-68
2024/01/03 08:41:53;;;;;;;0.30;0.30;;;;;;;;;;4977342;28;20129;-69
2024/01/03 08:44:19;;;;;;;0.45;0.35;;;;;;;;;;4977924;28;20057;-69
2024/01/03 08:46:44;;;;;;;0.52;0.40;;;;;;;;;;4976820;28;20046;-67
2024/01/03 08:49:10;;;;;;;0.10;0.10;;;;;;;;;;4977099;28;20038;-67
2024/01/03 08:51:35;;;;;;;0.40;0.40;;;;;;;;;;4972895;28;20053;-68
2024/01/03 08:54:01;;;;;;;0.30;0.30;;;;;;;;;;4957246;28;20054;-69
2024/01/03 08:56:27;;;;;;;0.98;0.43;;;;;;;;;;4959191;28;20049;-67
2024/01/03 08:58:52;;;;;;;2.40;0.55;;;;;;;;;;4977185;28;20519;-67
2024/01/03 09:01:19;;;;;;;0.35;0.32;;;;;;;;;;4976042;28;20058;-71
2024/01/03 09:03:45;;;;;;;0.50;0.50;;;;;;;;;;4975024;28;20911;-71
2024/01/03 09:06:13;;;;;;;0.85;0.68;;;;;;;;;;4977987;28;20057;-68
2024/01/03 09:08:39;;;;;;;0.40;0.40;;;;;;;;;;4975798;28;20046;-69
2024/01/03 09:11:11;;;;;;;0.82;0.40;;;;;;;;;;4977015;28;20042;-70
2024/01/03 09:13:38;;;;;;;0.60;0.50;;;;;;;;;;4976973;28;20637;-67
2024/01/03 09:16:04;;;;;;;5.80;0.68;;;;;;;;;;4977859;28;20416;-68
2024/01/03 09:18:30;;;;;;;0.50;0.50;;;;;;;;;;4976715;28;20050;-70
2024/01/03 09:20:57;;;;;;;0.52;0.50;;;;;;;;;;4976947;28;20109;-68
2024/01/03 09:23:22;;;;;;;0.32;0.32;;;;;;;;;;4976904;28;20049;-70
2024/01/03 09:25:49;;;;;;;1.30;0.68;;;;;;;;;;4968150;28;21369;-71
2024/01/03 09:28:15;;;;;;;0.73;0.47;;;;;;;;;;4974941;28;20100;-69
2024/01/03 09:30:40;;;;;;;1.23;0.60;;;;;;;;;;4973661;28;20042;-70
2024/01/03 09:33:06;;;;;;;0.95;0.50;;;;;;;;;;4974790;28;20133;-69
2024/01/03 09:35:31;;;;;;;0.88;0.80;;;;;;;;;;4971676;28;20120;-72
2024/01/03 09:37:56;;;;;;;0.50;0.43;;;;;;;;;;4974104;28;20076;-72
2024/01/03 09:40:22;;;;;;;0.75;0.57;;;;;;;;;;4974852;28;20046;-67
2024/01/03 09:42:48;;;;;;;2.40;0.70;;;;;;;;;;4975049;28;20105;-72
2024/01/03 09:45:14;;;;;;;0.30;0.30;;;;;;;;;;4988420;28;20073;-71
2024/01/03 09:47:40;;;;;;;0.52;0.38;;;;;;;;;;4973910;28;20577;-67
2024/01/03 09:50:06;;;;;;;0.75;0.35;;;;;;;;;;4975977;28;20050;-68
2024/01/03 09:52:32;;;;;;;0.43;0.43;;;;;;;;;;4974854;28;20051;-67
2024/01/03 09:54:57;;;;;;;3.05;0.40;;;;;;;;;;4975414;28;20046;-70
2024/01/03 09:57:24;;;;;;;0.57;0.30;;;;;;;;;;4973962;28;20046;-67
2024/01/03 09:59:49;;;;;;;0.73;0.40;;;;;;;;;;4974838;28;20145;-71
2024/01/03 10:02:14;;;;;;;0.80;0.40;;;;;;;;;;4987961;28;20129;-69
2024/01/03 10:04:44;;;;;;;1.55;0.65;;;;;;;;;;4974898;28;20046;-69
2024/01/03 10:07:10;;;;;;;1.20;0.82;;;;;;;;;;4973132;28;20483;-69
2024/01/03 10:09:48;;;;;;;0.60;0.50;;;;;;;;;;4973028;28;20038;-69
2024/01/03 10:12:18;;;;;;;0.85;0.50;;;;;;;;;;4974881;28;20074;-68
2024/01/03 10:14:44;;;;;;;0.30;0.30;;;;;;;;;;4974114;28;20284;-71
2024/01/03 10:17:10;;;;;;;0.75;0.38;;;;;;;;;;4974275;28;20137;-67
2024/01/03 10:19:36;;;;;;;0.50;0.50;;;;;;;;;;4975667;28;20060;-68
2024/01/03 10:22:02;;;;;;;0.80;0.55;;;;;;;;;;4978741;28;20598;-67
2024/01/03 10:24:28;;;;;;;0.60;0.60;;;;;;;;;;4979636;28;20038;-67
2024/01/03 10:27:10;;;;;;;0.88;0.70;;;;;;;;;;4977323;28;20116;-69
2024/01/03 10:29:36;;;;;;;1.55;0.50;;;;;;;;;;4976563;28;20042;-67
2024/01/03 10:32:05;;;;;;;0.90;0.60;;;;;;;;;;4978252;28;20133;-67
2024/01/03 10:34:31;;;;;;;1.45;0.75;;;;;;;;;;4979026;28;20176;-66
2024/01/03 10:36:58;;;;;;;1.42;0.68;;;;;;;;;;4977711;28;20125;-66
2024/01/03 10:39:24;;;;;;;2.60;0.90;;;;;;;;;;4979346;28;20050;-67
2024/01/03 10:41:50;;;;;;;0.77;0.77;;;;;;;;;;4977463;28;20046;-67
2024/01/03 10:44:17;;;;;;;1.77;0.95;;;;;;;;;;4979579;28;20051;-67
2024/01/03 10:46:43;;;;;;;2.70;0.77;;;;;;;;;;4978717;28;20052;-66
2024/01/03 10:49:09;;;;;;;0.50;0.50;;;;;;;;;;4980010;28;20074;-66
2024/01/03 10:51:46;;;;;;;3.65;1.05;;;;;;;;;;4980814;28;20100;-66
2024/01/03 10:54:15;;;;;;;0.73;0.65;;;;;;;;;;4979311;28;20054;-65
2024/01/03 10:56:51;;;;;;;0.75;0.38;;;;;;;;;;4976322;28;20042;-67
2024/01/03 10:59:17;;;;;;;2.00;0.80;;;;;;;;;;4979907;28;20387;-67
2024/01/03 11:02:00;;;;;;;0.52;0.40;;;;;;;;;;4978269;28;20129;-66
2024/01/03 11:04:37;;;;;;;1.35;0.82;;;;;;;;;;4976497;28;20050;-67
2024/01/03 11:07:29;;;;;;;1.40;0.55;;;;;;;;;;4977188;28;20074;-67
2024/01/03 11:09:54;;;;;;;0.43;0.40;;;;;;;;;;4977448;28;20081;-67
2024/01/03 11:12:27;;;;;;;0.30;0.30;;;;;;;;;;4980173;28;20074;-67
2024/01/03 11:14:53;;;;;;;2.63;0.70;;;;;;;;;;4978086;28;20069;-67
2024/01/03 11:17:33;;;;;;;0.60;0.60;;;;;;;;;;4977191;28;20050;-67
2024/01/03 11:20:06;;;;;;;1.23;0.57;;;;;;;;;;4978331;28;20054;-68
2024/01/03 11:22:54;;;;;;;0.95;0.70;;;;;;;;;;4978088;28;20053;-67
2024/01/03 11:25:46;;;;;;;2.30;0.80;;;;;;;;;;4975432;28;21006;-67
2024/01/03 11:28:35;;;;;;;0.40;0.38;;;;;;;;;;4978169;28;20042;-68
2024/01/03 11:31:01;;;;;;;0.40;0.40;;;;;;;;;;4976754;28;20085;-68
2024/01/03 11:33:31;;;;;;;0.75;0.47;;;;;;;;;;4978446;28;20042;-68
2024/01/03 11:35:57;;;;;;;3.28;0.50;;;;;;;;;;4978208;28;20219;-66
2024/01/03 11:38:43;;;;;;;1.27;0.52;;;;;;;;;;4976171;28;20412;-67
2024/01/03 11:41:15;;;;;;;0.80;0.80;;;;;;;;;;4955028;28;20136;-67
2024/01/03 11:43:41;;;;;;;1.15;0.43;;;;;;;;;;4973621;28;20050;-68
2024/01/03 11:46:11;;;;;;;0.38;0.38;;;;;;;;;;4976302;28;20053;-67
2024/01/03 11:48:38;;;;;;;2.72;0.57;;;;;;;;;;4974446;28;20489;-66
2024/01/03 11:51:20;;;;;;;0.40;0.17;;;;;;;;;;4977026;28;20054;-67
2024/01/03 11:53:45;;;;;;;0.32;0.30;;;;;;;;;;4977844;28;20134;-67
2024/01/03 11:56:11;;;;;;;1.13;0.85;;;;;;;;;;4978156;28;20144;-66
2024/01/03 11:58:36;;;;;;;1.05;0.60;;;;;;;;;;4977705;28;20133;-66
2024/01/03 12:01:07;;;;;;;0.50;0.40;;;;;;;;;;4977334;28;20418;-67
2024/01/03 12:03:32;;;;;;;0.30;0.30;;;;;;;;;;4974122;28;20062;-69
2024/01/03 12:05:58;;;;;;;0.22;0.22;;;;;;;;;;4977039;28;20054;-66
2024/01/03 12:08:23;;;;;;;0.30;0.30;;;;;;;;;;4978163;28;20099;-68
2024/01/03 12:10:49;;;;;;;0.65;0.40;;;;;;;;;;4976248;28;20507;-67
2024/01/03 12:13:14;;;;;;;0.40;0.40;;;;;;;;;;4978340;28;20058;-69
2024/01/03 12:15:40;;;;;;;0.43;0.43;;;;;;;;;;4977292;28;20034;-68
2024/01/03 12:18:07;;;;;;;0.30;0.30;;;;;;;;;;4977466;28;20116;-68
2024/01/03 12:20:36;;;;;;;0.65;0.50;;;;;;;;;;4977139;28;20811;-66
2024/01/03 12:23:06;;;;;;;2.05;0.52;;;;;;;;;;4977148;28;20411;-67
2024/01/03 12:25:31;;;;;;;0.35;0.35;;;;;;;;;;4976100;28;20065;-67
2024/01/03 12:27:57;;;;;;;0.30;0.30;;;;;;;;;;4977086;28;20046;-67
2024/01/03 12:30:23;;;;;;;0.30;0.28;;;;;;;;;;4977909;28;20042;-68
2024/01/03 12:32:50;;;;;;;0.13;0.13;;;;;;;;;;4975520;28;20130;-67
2024/01/03 12:35:15;;;;;;;0.30;0.30;;;;;;;;;;4977112;28;20063;-68
2024/01/03 12:37:46;;;;;;;0.30;0.30;;;;;;;;;;4976711;28;20034;-69
2024/01/03 12:40:16;;;;;;;0.40;0.40;;;;;;;;;;4976808;28;20113;-68
2024/01/03 12:42:44;;;;;;;1.55;0.45;;;;;;;;;;4976380;28;20060;-69
2024/01/03 12:45:11;;;;;;;1.58;0.28;;;;;;;;;;4989963;28;20042;-69
2024/01/03 12:47:36;;;;;;;0.40;0.40;;;;;;;;;;4978094;28;20577;-67
2024/01/03 12:50:02;;;;;;;0.68;0.30;;;;;;;;;;4977193;28;20066;-67
2024/01/03 12:52:29;;;;;;;0.50;0.50;;;;;;;;;;4977581;28;20053;-66
2024/01/03 12:54:55;;;;;;;0.40;0.30;;;;;;;;;;4975257;28;20097;-74
2024/01/03 12:57:21;;;;;;;0.65;0.50;;;;;;;;;;4975763;28;20400;-67
2024/01/03 12:59:46;;;;;;;0.90;0.52;;;;;;;;;;4976383;28;20038;-66
2024/01/03 13:02:12;;;;;;;1.75;0.68;;;;;;;;;;4976510;28;20408;-67
2024/01/03 13:04:38;;;;;;;0.70;0.60;;;;;;;;;;4977001;28;20046;-68
2024/01/03 13:07:04;;;;;;;1.60;0.60;;;;;;;;;;4975712;28;20042;-68
2024/01/03 13:09:30;;;;;;;0.98;0.30;;;;;;;;;;4977698;28;20534;-69
2024/01/03 13:11:56;;;;;;;0.55;0.55;;;;;;;;;;4974407;28;20146;-68
2024/01/03 13:14:22;;;;;;;1.55;0.63;;;;;;;;;;4976885;28;20046;-68
2024/01/03 13:16:47;;;;;;;0.85;0.50;;;;;;;;;;4974424;28;20077;-68
2024/01/03 13:19:13;;;;;;;1.33;0.40;;;;;;;;;;4973886;28;20527;-67
2024/01/03 13:21:39;;;;;;;1.63;0.50;;;;;;;;;;4976541;28;20088;-68
2024/01/03 13:24:05;;;;;;;0.28;0.20;;;;;;;;;;4974451;28;20048;-68
2024/01/03 13:26:30;;;;;;;1.20;0.30;;;;;;;;;;4975951;28;20046;-68
2024/01/03 13:28:56;;;;;;;0.75;0.50;;;;;;;;;;4989150;28;21015;-68
2024/01/03 13:31:21;;;;;;;4.03;0.47;;;;;;;;;;4976297;28;20046;-68
2024/01/03 13:33:47;;;;;;;2.10;0.55;;;;;;;;;;4975910;28;20038;-68
2024/01/03 13:36:12;;;;;;;0.30;0.30;;;;;;;;;;4974590;28;20399;-69
2024/01/03 13:38:38;;;;;;;0.57;0.40;;;;;;;;;;4974684;28;20639;-66
2024/01/03 13:41:06;;;;;;;2.13;0.30;;;;;;;;;;4973344;28;20050;-68
2024/01/03 13:43:33;;;;;;;0.70;0.40;;;;;;;;;;4975733;28;20125;-69
2024/01/03 13:46:01;;;;;;;0.45;0.32;;;;;;;;;;4975611;28;20854;-69
2024/01/03 13:48:27;;;;;;;3.25;0.70;;;;;;;;;;4973506;28;20136;-69
2024/01/03 13:50:53;;;;;;;2.97;0.65;;;;;;;;;;4975304;28;20578;-68
2024/01/03 13:53:18;;;;;;;0.40;0.40;;;;;;;;;;4974976;28;20128;-68
2024/01/03 13:55:44;;;;;;;1.52;0.35;;;;;;;;;;4975837;28;20061;-68
2024/01/03 13:58:09;;;;;;;0.50;0.50;;;;;;;;;;4973885;28;20050;-68
2024/01/03 14:00:34;;;;;;;0.80;0.40;;;;;;;;;;4976379;28;20630;-69
2024/01/03 14:03:00;;;;;;;0.35;0.35;;;;;;;;;;4974255;28;20105;-68
2024/01/03 14:05:25;;;;;;;0.73;0.50;;;;;;;;;;4976385;28;20058;-68
2024/01/03 14:07:51;;;;;;;0.90;0.43;;;;;;;;;;4976304;28;20074;-69
2024/01/03 14:10:16;;;;;;;4.68;0.40;;;;;;;;;;4975134;28;20046;-69
2024/01/03 14:12:42;;;;;;;0.60;0.40;;;;;;;;;;4976620;28;20053;-68
2024/01/03 14:15:13;;;;;;;1.08;0.30;;;;;;;;;;4975675;28;20136;-68
2024/01/03 14:17:39;;;;;;;1.83;0.50;;;;;;;;;;4975085;28;21094;-68
2024/01/03 14:20:06;;;;;;;1.75;0.30;;;;;;;;;;4972957;28;20100;-68
2024/01/03 14:22:32;;;;;;;1.35;0.50;;;;;;;;;;4975170;28;20081;-68
2024/01/03 14:24:57;;;;;;;0.43;0.30;;;;;;;;;;4973756;28;20049;-68
2024/01/03 14:27:23;;;;;;;0.40;0.30;;;;;;;;;;4974225;28;20050;-69
2024/01/03 14:29:48;;;;;;;0.85;0.40;;;;;;;;;;4975782;28;20100;-68
2024/01/03 14:32:14;;;;;;;0.57;0.50;;;;;;;;;;4972458;28;20050;-68
2024/01/03 14:34:40;;;;;;;0.50;0.50;;;;;;;;;;4975338;28;20073;-69
2024/01/03 14:37:07;;;;;;;0.95;0.40;;;;;;;;;;4979963;28;20050;-68
2024/01/03 14:39:40;;;;;;;2.65;1.25;;;;;;;;;;4979245;28;20050;-67